createdAt,value
2022-09-13T00:01:06.871Z,7.93
2022-09-13T00:03:39.167Z,9.38
2022-09-13T00:06:19.150Z,7.97
2022-09-13T00:08:47.719Z,8.60
2022-09-13T00:11:20.001Z,6.82
2022-09-13T00:13:47.862Z,6.55
2022-09-13T00:16:19.958Z,6.45
2022-09-13T00:18:48.182Z,5.10
2022-09-13T00:21:20.180Z,5.78
2022-09-13T00:23:53.909Z,5.40
2022-09-13T00:26:28.189Z,6.53
2022-09-13T00:28:58.768Z,5.72
2022-09-13T00:31:29.003Z,5.13
2022-09-13T00:34:00.476Z,5.55
2022-09-13T00:36:27.917Z,4.70
2022-09-13T00:38:55.148Z,4.95
2022-09-13T00:41:23.035Z,5.95
2022-09-13T00:44:02.011Z,7.80
2022-09-13T00:46:44.290Z,7.75
2022-09-13T00:49:29.232Z,8.02
2022-09-13T00:52:03.873Z,7.63
2022-09-13T00:54:41.217Z,6.10
2022-09-13T00:57:13.056Z,5.25
2022-09-13T00:59:48.948Z,5.10
2022-09-13T01:02:16.531Z,4.45
2022-09-13T01:04:44.440Z,4.72
2022-09-13T01:07:16.626Z,4.25
2022-09-13T01:09:48.508Z,3.67
2022-09-13T01:12:34.083Z,4.00
2022-09-13T01:15:05.595Z,3.78
2022-09-13T01:17:35.096Z,4.65
2022-09-13T01:20:06.750Z,5.70
2022-09-13T01:23:37.883Z,5.45
2022-09-13T01:26:26.366Z,6.80
2022-09-13T01:29:34.635Z,6.10
2022-09-13T01:32:48.929Z,5.53
2022-09-13T01:35:24.563Z,6.30
2022-09-13T01:38:19.803Z,5.18
2022-09-13T01:41:13.767Z,6.93
2022-09-13T01:44:26.964Z,5.40
2022-09-13T01:47:15.337Z,5.90
2022-09-13T01:50:13.731Z,5.68
2022-09-13T01:52:58.267Z,6.35
2022-09-13T01:55:50.603Z,6.10
2022-09-13T01:59:14.883Z,6.05
2022-09-13T02:02:16.714Z,8.30
2022-09-13T02:04:54.325Z,10.30
2022-09-13T02:07:35.891Z,10.80
2022-09-13T02:10:15.017Z,10.52
2022-09-13T02:12:47.406Z,11.13
2022-09-13T02:15:31.995Z,11.32
2022-09-13T02:18:09.079Z,13.52
2022-09-13T02:20:42.155Z,12.73
2022-09-13T02:23:19.213Z,17.20
2022-09-13T02:25:50.883Z,15.68
2022-09-13T02:28:30.686Z,15.63
2022-09-13T02:31:01.752Z,16.23
2022-09-13T02:33:42.156Z,16.15
2022-09-13T02:36:24.375Z,16.27
2022-09-13T02:39:01.253Z,16.20
2022-09-13T02:41:46.286Z,15.75
2022-09-13T02:44:35.961Z,16.85
2022-09-13T02:47:30.887Z,16.23
2022-09-13T02:50:25.970Z,13.80
2022-09-13T02:53:15.061Z,16.08
2022-09-13T02:56:04.609Z,14.82
2022-09-13T02:58:50.781Z,15.55
2022-09-13T03:01:18.588Z,17.98
2022-09-13T03:03:45.754Z,15.63
2022-09-13T03:06:13.094Z,17.08
2022-09-13T03:08:40.782Z,14.52
2022-09-13T03:11:23.879Z,15.07
2022-09-13T03:14:30.751Z,16.48
2022-09-13T03:17:14.193Z,15.73
2022-09-13T03:20:11.866Z,16.42
2022-09-13T03:22:53.571Z,15.88
2022-09-13T03:26:07.545Z,17.38
2022-09-13T03:28:49.638Z,16.85
2022-09-13T03:31:34.238Z,17.15
2022-09-13T03:34:17.501Z,14.95
2022-09-13T03:37:22.313Z,15.98
2022-09-13T03:40:11.364Z,15.82
2022-09-13T03:42:57.215Z,14.77
2022-09-13T03:45:33.701Z,15.68
2022-09-13T03:48:04.486Z,16.60
2022-09-13T03:50:33.212Z,15.88
2022-09-13T03:53:16.313Z,14.88
2022-09-13T03:55:44.229Z,15.15
2022-09-13T03:58:18.818Z,15.73
2022-09-13T04:00:46.612Z,15.25
2022-09-13T04:03:15.339Z,14.50
2022-09-13T04:05:42.514Z,14.65
2022-09-13T04:08:09.949Z,14.00
2022-09-13T04:10:38.035Z,15.45
2022-09-13T04:13:05.675Z,11.02
2022-09-13T04:15:33.435Z,13.98
2022-09-13T04:18:01.202Z,14.93
2022-09-13T04:20:29.469Z,13.95
2022-09-13T04:23:00.183Z,11.52
2022-09-13T04:25:27.761Z,10.60
2022-09-13T04:27:56.786Z,14.30
2022-09-13T04:30:24.402Z,11.93
2022-09-13T04:32:52.062Z,15.57
2022-09-13T04:35:20.291Z,25.17
2022-09-13T04:37:47.731Z,17.08
2022-09-13T04:40:15.200Z,16.27
2022-09-13T04:42:45.441Z,14.95
2022-09-13T04:45:13.011Z,18.40
2022-09-13T04:47:40.327Z,17.10
2022-09-13T04:50:08.144Z,17.25
2022-09-13T04:52:36.211Z,17.65
2022-09-13T04:55:03.593Z,15.82
2022-09-13T04:57:30.831Z,19.95
2022-09-13T04:59:58.173Z,18.25
2022-09-13T05:02:25.475Z,17.80
2022-09-13T05:04:52.720Z,17.75
2022-09-13T05:07:20.175Z,17.67
2022-09-13T05:09:48.040Z,19.33
2022-09-13T05:12:15.300Z,20.27
2022-09-13T05:14:42.829Z,16.08
2022-09-13T05:17:10.018Z,15.80
2022-09-13T05:19:37.227Z,15.68
2022-09-13T05:22:04.915Z,13.65
2022-09-13T05:24:33.239Z,12.77
2022-09-13T05:27:00.505Z,12.98
2022-09-13T05:29:27.991Z,13.80
2022-09-13T05:31:55.251Z,12.75
2022-09-13T05:34:22.690Z,11.50
2022-09-13T05:36:54.191Z,12.25
2022-09-13T05:39:43.701Z,12.93
2022-09-13T05:42:10.233Z,13.68
2022-09-13T05:44:37.490Z,13.85
2022-09-13T05:47:05.726Z,12.43
2022-09-13T05:49:33.193Z,14.63
2022-09-13T05:52:00.384Z,14.52
2022-09-13T05:54:27.564Z,14.18
2022-09-13T05:56:57.615Z,14.00
2022-09-13T05:59:25.182Z,14.15
2022-09-13T06:01:52.513Z,13.95
2022-09-13T06:04:19.913Z,13.77
2022-09-13T06:06:47.164Z,13.15
2022-09-13T06:09:14.375Z,13.30
2022-09-13T06:11:41.857Z,12.10
2022-09-13T06:14:10.037Z,11.50
2022-09-13T06:16:37.259Z,12.07
2022-09-13T06:19:04.778Z,11.90
2022-09-13T06:21:31.958Z,11.82
2022-09-13T06:23:59.130Z,11.15
2022-09-13T06:26:28.558Z,11.45
2022-09-13T06:28:58.276Z,11.70
2022-09-13T06:31:28.701Z,11.38
2022-09-13T06:33:59.833Z,11.50
2022-09-13T06:36:27.604Z,11.80
2022-09-13T06:38:54.799Z,13.00
2022-09-13T06:41:25.050Z,12.25
2022-09-13T06:43:58.877Z,12.15
2022-09-13T06:46:29.594Z,11.07
2022-09-13T06:49:01.758Z,10.90
2022-09-13T06:51:31.455Z,11.35
2022-09-13T06:53:59.713Z,11.60
2022-09-13T06:56:33.561Z,10.48
2022-09-13T06:59:11.005Z,10.48
2022-09-13T07:01:41.588Z,10.70
2022-09-13T07:04:19.542Z,9.05
2022-09-13T07:06:49.853Z,9.38
2022-09-13T07:09:22.238Z,8.20
2022-09-13T07:11:54.509Z,8.57
2022-09-13T07:14:26.143Z,6.85
2022-09-13T07:16:54.217Z,8.60
2022-09-13T07:19:27.224Z,8.90
2022-09-13T07:21:56.569Z,7.32
2022-09-13T07:24:25.490Z,8.23
2022-09-13T07:26:53.778Z,7.25
2022-09-13T07:29:24.042Z,7.60
2022-09-13T07:31:54.706Z,7.78
2022-09-13T07:34:25.629Z,6.78
2022-09-13T07:36:53.223Z,7.78
2022-09-13T07:39:23.069Z,7.20
2022-09-13T07:41:53.718Z,6.10
2022-09-13T07:44:21.379Z,6.32
2022-09-13T07:46:48.649Z,7.15
2022-09-13T07:49:19.083Z,6.30
2022-09-13T07:51:46.620Z,8.27
2022-09-13T07:54:17.791Z,6.40
2022-09-13T07:56:46.609Z,5.95
2022-09-13T07:59:16.771Z,5.53
2022-09-13T08:01:50.625Z,5.00
2022-09-13T08:04:23.952Z,6.90
2022-09-13T08:06:51.245Z,5.90
2022-09-13T08:09:19.379Z,6.00
2022-09-13T08:11:51.877Z,4.60
2022-09-13T08:14:22.350Z,4.90
2022-09-13T08:16:50.950Z,5.18
2022-09-13T08:19:18.968Z,4.43
2022-09-13T08:21:47.309Z,4.72
2022-09-13T08:24:19.261Z,5.10
2022-09-13T08:26:47.690Z,4.65
2022-09-13T08:29:16.598Z,5.00
2022-09-13T08:31:45.007Z,4.35
2022-09-13T08:34:15.209Z,7.38
2022-09-13T08:36:43.441Z,4.07
2022-09-13T08:39:15.008Z,4.25
2022-09-13T08:41:42.608Z,3.42
2022-09-13T08:44:29.732Z,5.10
2022-09-13T08:47:24.763Z,3.70
2022-09-13T08:50:06.521Z,4.90
2022-09-13T08:53:04.133Z,5.32
2022-09-13T08:55:56.571Z,4.63
2022-09-13T08:59:10.167Z,3.72
2022-09-13T09:02:14.522Z,6.03
2022-09-13T09:04:48.759Z,3.72
2022-09-13T09:07:23.273Z,3.63
2022-09-13T09:10:06.532Z,3.75
2022-09-13T09:12:45.873Z,3.38
2022-09-13T09:15:24.188Z,4.47
2022-09-13T09:18:00.015Z,3.70
2022-09-13T09:20:29.073Z,4.53
2022-09-13T09:22:56.351Z,9.20
2022-09-13T09:25:26.262Z,4.80
2022-09-13T09:27:54.537Z,4.43
2022-09-13T09:30:22.045Z,3.20
2022-09-13T09:33:30.540Z,2.30
2022-09-13T09:36:30.581Z,2.33
2022-09-13T09:38:58.172Z,4.30
2022-09-13T09:41:33.427Z,6.03
2022-09-13T09:44:18.742Z,5.30
2022-09-13T09:47:05.814Z,3.38
2022-09-13T09:49:59.500Z,2.25
2022-09-13T09:53:14.495Z,2.40
2022-09-13T09:55:46.715Z,3.15
2022-09-13T09:58:19.145Z,6.47
2022-09-13T10:00:55.451Z,3.45
2022-09-13T10:03:33.221Z,2.40
2022-09-13T10:06:20.498Z,2.25
2022-09-13T10:09:26.595Z,2.42
2022-09-13T10:12:00.110Z,2.25
2022-09-13T10:14:31.675Z,2.22
2022-09-13T10:17:17.933Z,2.40
2022-09-13T10:20:14.298Z,2.05
2022-09-13T10:22:43.072Z,2.30
2022-09-13T10:25:27.331Z,2.60
2022-09-13T10:27:58.822Z,2.50
2022-09-13T10:30:47.441Z,2.60
2022-09-13T10:33:37.788Z,2.60
2022-09-13T10:36:29.566Z,4.03
2022-09-13T10:39:17.597Z,2.60
2022-09-13T10:42:10.285Z,2.58
2022-09-13T10:44:56.605Z,2.33
2022-09-13T10:47:38.691Z,2.28
2022-09-13T10:50:25.332Z,1.98
2022-09-13T10:53:00.937Z,1.90
2022-09-13T10:55:40.965Z,1.95
2022-09-13T10:58:08.253Z,4.82
2022-09-13T11:00:45.581Z,4.72
2022-09-13T11:03:41.841Z,2.60
2022-09-13T11:06:47.151Z,2.80
2022-09-13T11:09:49.606Z,2.30
2022-09-13T11:12:35.719Z,2.40
2022-09-13T11:15:31.446Z,2.47
2022-09-13T11:18:01.431Z,2.20
2022-09-13T11:20:49.209Z,1.92
2022-09-13T11:24:04.252Z,4.70
2022-09-13T11:27:04.746Z,2.33
2022-09-13T11:29:55.267Z,2.22
2022-09-13T11:32:47.690Z,2.08
2022-09-13T11:35:20.983Z,1.65
2022-09-13T11:38:36.922Z,1.70
2022-09-13T11:41:39.655Z,2.78
2022-09-13T11:44:36.382Z,1.60
2022-09-13T11:47:42.692Z,2.33
2022-09-13T11:50:29.194Z,1.65
2022-09-13T11:53:50.337Z,1.70
2022-09-13T11:56:48.923Z,2.20
2022-09-13T11:59:40.776Z,2.60
2022-09-13T12:02:39.091Z,3.58
2022-09-13T12:05:25.057Z,3.20
2022-09-13T12:08:16.236Z,2.55
2022-09-13T12:10:58.244Z,2.60
2022-09-13T12:13:32.546Z,4.15
2022-09-13T12:16:07.168Z,2.47
2022-09-13T12:18:46.185Z,2.30
2022-09-13T12:21:31.128Z,2.47
2022-09-13T12:24:13.081Z,2.42
2022-09-13T12:26:56.742Z,2.28
2022-09-13T12:29:51.574Z,2.28
2022-09-13T12:32:20.094Z,2.70
2022-09-13T12:35:15.636Z,2.50
2022-09-13T12:38:31.203Z,2.05
2022-09-13T12:41:47.740Z,2.38
2022-09-13T12:44:52.826Z,2.58
2022-09-13T12:47:50.385Z,2.67
2022-09-13T12:50:57.718Z,2.90
2022-09-13T12:53:49.054Z,2.58
2022-09-13T12:56:31.290Z,2.15
2022-09-13T12:59:39.029Z,2.50
2022-09-13T13:02:27.939Z,3.00
2022-09-13T13:05:05.259Z,2.47
2022-09-13T13:07:38.247Z,3.40
2022-09-13T13:10:07.099Z,2.53
2022-09-13T13:12:38.973Z,2.50
2022-09-13T13:15:15.814Z,2.47
2022-09-13T13:17:53.277Z,2.53
2022-09-13T13:20:47.177Z,2.53
2022-09-13T13:23:25.432Z,2.28
2022-09-13T13:26:10.638Z,2.67
2022-09-13T13:28:43.931Z,3.47
2022-09-13T13:31:24.047Z,3.03
2022-09-13T13:34:22.639Z,2.70
2022-09-13T13:37:10.067Z,2.70
2022-09-13T13:39:42.033Z,3.00
2022-09-13T13:42:31.743Z,2.85
2022-09-13T13:45:01.891Z,2.83
2022-09-13T13:47:29.755Z,2.80
2022-09-13T13:50:12.120Z,3.00
2022-09-13T13:53:18.463Z,2.38
2022-09-13T13:55:49.621Z,2.30
2022-09-13T13:58:30.338Z,2.40
2022-09-13T14:01:02.570Z,2.70
2022-09-13T14:04:08.258Z,2.40
2022-09-13T14:07:06.464Z,2.30
2022-09-13T14:10:26.105Z,2.45
2022-09-13T14:13:30.218Z,4.03
2022-09-13T14:16:33.029Z,2.60
2022-09-13T14:19:41.069Z,2.63
2022-09-13T14:22:18.910Z,2.50
2022-09-13T14:25:14.280Z,2.40
2022-09-13T14:27:46.468Z,2.80
2022-09-13T14:30:19.397Z,2.80
2022-09-13T14:32:55.064Z,2.60
2022-09-13T14:35:34.228Z,2.25
2022-09-13T14:38:25.254Z,2.70
2022-09-13T14:41:13.483Z,3.53
2022-09-13T14:43:43.474Z,2.58
2022-09-13T14:46:41.913Z,2.47
2022-09-13T14:49:22.281Z,2.80
2022-09-13T14:52:03.768Z,2.67
2022-09-13T14:54:40.983Z,2.67
2022-09-13T14:57:31.041Z,2.53
2022-09-13T15:00:16.726Z,2.40
2022-09-13T15:02:59.775Z,2.60
2022-09-13T15:05:33.890Z,2.45
2022-09-13T15:08:27.478Z,2.35
2022-09-13T15:10:58.033Z,2.88
2022-09-13T15:13:25.754Z,2.75
2022-09-13T15:15:54.147Z,3.10
2022-09-13T15:18:23.798Z,2.45
2022-09-13T15:21:02.689Z,5.88
2022-09-13T15:23:38.911Z,2.70
2022-09-13T15:26:13.726Z,2.47
2022-09-13T15:28:43.836Z,4.35
2022-09-13T15:31:21.324Z,3.60
2022-09-13T15:33:49.811Z,4.05
2022-09-13T15:36:19.908Z,2.88
2022-09-13T15:39:09.463Z,2.95
2022-09-13T15:41:50.932Z,3.53
2022-09-13T15:44:19.393Z,2.95
2022-09-13T15:46:56.158Z,5.75
2022-09-13T15:49:27.348Z,4.68
2022-09-13T15:52:01.428Z,3.47
2022-09-13T15:54:43.369Z,3.90
2022-09-13T15:57:29.755Z,3.08
2022-09-13T16:00:01.531Z,2.60
2022-09-13T16:02:33.502Z,3.53
2022-09-13T16:05:01.435Z,4.07
2022-09-13T16:07:28.607Z,4.05
2022-09-13T16:09:56.073Z,3.40
2022-09-13T16:12:24.768Z,4.15
2022-09-13T16:14:52.109Z,3.70
2022-09-13T16:17:22.543Z,2.92
2022-09-13T16:19:50.018Z,4.13
2022-09-13T16:22:17.633Z,5.28
2022-09-13T16:24:45.143Z,4.43
2022-09-13T16:27:15.540Z,3.08
2022-09-13T16:29:43.456Z,2.78
2022-09-13T16:32:11.448Z,2.70
2022-09-13T16:34:38.852Z,6.18
2022-09-13T16:37:06.077Z,4.45
2022-09-13T16:39:33.541Z,2.97
2022-09-13T16:42:00.991Z,2.60
2022-09-13T16:44:28.290Z,3.30
2022-09-13T16:46:55.857Z,2.80
2022-09-13T16:49:23.109Z,3.25
2022-09-13T16:51:50.411Z,3.00
2022-09-13T16:54:17.908Z,3.00
2022-09-13T16:56:45.222Z,4.47
2022-09-13T16:59:12.460Z,3.40
2022-09-13T17:01:40.424Z,3.90
2022-09-13T17:04:08.385Z,4.03
2022-09-13T17:06:35.879Z,3.60
2022-09-13T17:09:07.538Z,3.30
2022-09-13T17:11:41.559Z,3.35
2022-09-13T17:14:13.929Z,3.40
2022-09-13T17:16:46.516Z,3.55
2022-09-13T17:19:24.825Z,3.20
2022-09-13T17:21:57.553Z,3.95
2022-09-13T17:24:27.528Z,18.63
2022-09-13T17:26:56.873Z,3.97
2022-09-13T17:29:25.994Z,6.78
2022-09-13T17:31:53.846Z,3.50
2022-09-13T17:34:21.577Z,3.47
2022-09-13T17:36:51.160Z,4.60
2022-09-13T17:39:19.817Z,4.28
2022-09-13T17:41:48.726Z,4.68
2022-09-13T17:44:16.451Z,5.15
2022-09-13T17:46:43.944Z,4.72
2022-09-13T17:49:11.293Z,5.63
2022-09-13T17:51:39.512Z,4.65
2022-09-13T17:54:12.368Z,4.78
2022-09-13T17:56:45.074Z,4.38
2022-09-13T17:59:17.462Z,5.20
2022-09-13T18:01:49.823Z,4.78
2022-09-13T18:04:22.095Z,4.85
2022-09-13T18:06:52.205Z,5.82
2022-09-13T18:09:21.708Z,4.03
2022-09-13T18:11:50.474Z,4.97
2022-09-13T18:14:19.612Z,5.32
2022-09-13T18:16:49.981Z,5.13
2022-09-13T18:19:17.599Z,6.85
2022-09-13T18:21:45.366Z,4.85
2022-09-13T18:24:13.000Z,6.50
2022-09-13T18:26:40.293Z,5.97
2022-09-13T18:29:13.721Z,5.03
2022-09-13T18:31:42.993Z,4.45
2022-09-13T18:34:14.748Z,6.13
2022-09-13T18:36:42.983Z,5.65
2022-09-13T18:39:20.412Z,4.82
2022-09-13T18:41:48.852Z,4.70
2022-09-13T18:44:18.578Z,6.45
2022-09-13T18:46:47.615Z,5.45
2022-09-13T18:49:15.522Z,8.32
2022-09-13T18:51:45.496Z,8.30
2022-09-13T18:54:18.266Z,5.20
2022-09-13T18:56:47.961Z,6.32
2022-09-13T18:59:15.670Z,6.13
2022-09-13T19:01:46.172Z,5.15
2022-09-13T19:04:18.150Z,5.05
2022-09-13T19:06:53.477Z,5.97
2022-09-13T19:09:23.125Z,6.18
2022-09-13T19:11:54.173Z,6.03
2022-09-13T19:14:30.016Z,4.68
2022-09-13T19:17:04.887Z,8.18
2022-09-13T19:19:34.927Z,5.40
2022-09-13T19:22:02.900Z,5.40
2022-09-13T19:24:31.286Z,5.25
2022-09-13T19:26:59.835Z,4.90
2022-09-13T19:29:28.640Z,6.30
2022-09-13T19:31:56.222Z,6.70
2022-09-13T19:34:25.826Z,6.07
2022-09-13T19:36:58.884Z,5.32
2022-09-13T19:39:32.889Z,5.97
2022-09-13T19:42:01.149Z,7.60
2022-09-13T19:44:29.622Z,6.88
2022-09-13T19:47:45.035Z,5.72
2022-09-13T19:49:49.642Z,6.63
2022-09-13T19:52:19.271Z,5.00
2022-09-13T19:54:48.429Z,4.72
2022-09-13T19:57:16.099Z,4.93
2022-09-13T19:59:43.879Z,5.90
2022-09-13T20:02:11.440Z,6.57
2022-09-13T20:04:39.277Z,5.05
2022-09-13T20:07:12.221Z,5.90
2022-09-13T20:09:42.337Z,7.40
2022-09-13T20:12:11.816Z,5.25
2022-09-13T20:14:41.462Z,4.47
2022-09-13T20:17:09.236Z,4.70
2022-09-13T20:19:43.529Z,4.88
2022-09-13T20:22:15.080Z,4.40
2022-09-13T20:24:43.856Z,4.43
2022-09-13T20:27:11.634Z,4.75
2022-09-13T20:29:41.037Z,4.40
2022-09-13T20:32:09.638Z,4.75
2022-09-13T20:34:38.017Z,5.60
2022-09-13T20:37:06.129Z,4.60
2022-09-13T20:39:34.409Z,4.35
2022-09-13T20:42:02.314Z,4.45
2022-09-13T20:44:30.776Z,4.15
2022-09-13T20:46:59.170Z,5.63
2022-09-13T20:49:27.230Z,6.18
2022-09-13T20:51:55.376Z,5.03
2022-09-13T20:54:22.677Z,4.78
2022-09-13T20:56:49.961Z,5.50
2022-09-13T20:59:17.451Z,5.35
2022-09-13T21:01:44.778Z,6.55
2022-09-13T21:04:12.174Z,7.45
2022-09-13T21:07:02.625Z,4.97
2022-09-13T21:09:30.052Z,6.05
2022-09-13T21:11:57.468Z,5.15
2022-09-13T21:14:24.686Z,7.90
2022-09-13T21:16:52.042Z,8.90
2022-09-13T21:19:19.615Z,6.05
2022-09-13T21:21:46.972Z,5.13
2022-09-13T21:24:14.245Z,5.20
2022-09-13T21:26:42.623Z,4.68
2022-09-13T21:29:12.104Z,4.25
2022-09-13T21:31:40.624Z,8.65
2022-09-13T21:34:16.848Z,4.38
2022-09-13T21:36:46.468Z,4.32
2022-09-13T21:39:16.314Z,4.05
2022-09-13T21:41:43.966Z,4.25
2022-09-13T21:44:11.790Z,4.03
2022-09-13T21:46:41.089Z,4.20
2022-09-13T21:49:11.877Z,4.20
2022-09-13T21:51:44.017Z,4.10
2022-09-13T21:54:16.043Z,4.00
2022-09-13T21:56:50.174Z,4.35
2022-09-13T21:59:20.355Z,4.03
2022-09-13T22:01:51.473Z,4.25
2022-09-13T22:04:27.762Z,3.80
2022-09-13T22:06:56.211Z,4.00
2022-09-13T22:09:27.339Z,4.22
2022-09-13T22:11:55.923Z,4.10
2022-09-13T22:14:23.503Z,4.18
2022-09-13T22:16:53.062Z,3.90
2022-09-13T22:19:26.852Z,3.85
2022-09-13T22:21:59.332Z,3.95
2022-09-13T22:24:32.229Z,3.63
2022-09-13T22:27:00.200Z,3.72
2022-09-13T22:29:28.718Z,3.53
2022-09-13T22:31:56.385Z,3.80
2022-09-13T22:34:25.545Z,3.15
2022-09-13T22:36:55.550Z,4.22
2022-09-13T22:39:23.176Z,4.10
2022-09-13T22:41:50.609Z,3.65
2022-09-13T22:44:17.819Z,3.20
2022-09-13T22:46:46.221Z,3.40
2022-09-13T22:49:19.257Z,3.47
2022-09-13T22:51:48.175Z,3.50
2022-09-13T22:54:18.062Z,3.92
2022-09-13T22:56:45.800Z,3.85
2022-09-13T22:59:20.969Z,3.40
2022-09-13T23:01:49.369Z,3.70
2022-09-13T23:04:16.761Z,3.75
2022-09-13T23:06:44.643Z,3.90
2022-09-13T23:09:18.970Z,3.53
2022-09-13T23:11:47.068Z,3.75
2022-09-13T23:14:17.295Z,3.70
2022-09-13T23:16:49.109Z,3.47
2022-09-13T23:19:20.492Z,3.35
2022-09-13T23:21:47.795Z,3.53
2022-09-13T23:24:18.123Z,3.17
2022-09-13T23:26:46.796Z,3.22
2022-09-13T23:29:18.013Z,3.53
2022-09-13T23:31:47.324Z,3.55
2022-09-13T23:34:17.771Z,3.42
2022-09-13T23:36:46.526Z,3.30
2022-09-13T23:39:17.908Z,3.60
2022-09-13T23:41:48.717Z,3.28
2022-09-13T23:44:16.883Z,3.28
2022-09-13T23:46:44.262Z,3.00
2022-09-13T23:49:12.321Z,3.30
2022-09-13T23:51:39.882Z,3.05
2022-09-13T23:54:08.047Z,3.17
2022-09-13T23:56:36.091Z,3.30
2022-09-13T23:59:04.943Z,3.30
